Satellite Actuals Today Synoptics Week ahead

Weather information and forecast links for Shobdon, the Midlands, Western England and Wales

Today:

BBC Leominster local forecast and regional video.

Met Office general forecast

Met Office F214 and F215 charts (as displayed in the Aero Club each day) You have to register to use this site, but it is free.

Links to pretty much everything you need Rackham's home.

Satellite Met Office or Sat24 - visual for lower cloud, infrared for upper cloud.

XCWeather Wind map and local forecast

Will it Rain Today?

TAFs and METARs EGBB:Birmingham EGFF:Cardiff EGVN:Brize Norton

Local forecasts Met Office  MetCheck  Weatherweb

RASP Ridge wind forecast

Dewpoint+Temperature tephigram UK Soundings or Weather online


Other Club sites:Dunstable  Lasham  Nympsfield Long Mynd

Shobdon Hangar web-cam facing Southwest

Latest TAFs

Birmingham

2018/11/12 18:09
TAF EGBB 121659Z 1218/1318 22012KT 9999 FEW030 
      TEMPO 1218/1303 22016G26KT 7000 SHRA PROB40 
      TEMPO 1218/1301 4000 +TSGS +SHRA

Brize Norton

2018/11/12 21:59
TAF EGVN 121958Z 1221/1321 21008KT 9999 FEW025 PROB40 
      TEMPO 1221/1301 7000 SHRA SCT018 PROB30 
      TEMPO 1301/1307 SCT015 PROB30 
      TEMPO 1310/1313 SCT018

Cardiff

2018/11/12 21:43
TAF 
      AMD EGFF 122135Z 1221/1318 23014KT 9999 FEW025 
      TEMPO 1221/1303 27018G28KT 7000 SHRA PROB30 
      TEMPO 1221/1303 3000 +TSGS +SHRA 
      BECMG 1300/1303 26014KT 
      TEMPO 1303/1309 27017G27KT 7000 SHRA 
      BECMG 1315/1318 20011KT

Select station

2018/11/12 18:09
TAF EGCC 121700Z 1218/1324 17007KT 9999 SCT030 PROB30 
      TEMPO 1218/1308 7000 SHRA 
      BECMG 1305/1308 23010KT 
      BECMG 1315/1318 17009KT

Decode?  - Copy the TAF (from the station code) and paste it into the METARs/TAFs box here.

Soaring data for today

Data provided by RASP

Today's Forecast for Shobdon (52.24207,-2.87443)
Stars rating
Wind direction
Wind speed
Cumrasp-uk.ukulus potential
Surface Sunshine
Surface Temperature
MSL Pressuree
Rainfall